createdAt,value
2023-06-17T00:01:10.208Z,101592.72
2023-06-17T00:03:50.426Z,101592.63
2023-06-17T00:06:30.621Z,101588.53
2023-06-17T00:09:10.788Z,101594.03
2023-06-17T00:11:52.556Z,101591.53
2023-06-17T00:14:33.745Z,101599.00
2023-06-17T00:17:15.345Z,101599.69
2023-06-17T00:19:57.911Z,101594.41
2023-06-17T00:22:40.396Z,101585.53
2023-06-17T00:25:20.795Z,101587.06
2023-06-17T00:28:00.922Z,101588.97
2023-06-17T00:30:41.393Z,101578.56
2023-06-17T00:33:21.514Z,101579.63
2023-06-17T00:36:04.256Z,101577.59
2023-06-17T00:38:44.363Z,101578.66
2023-06-17T00:41:24.612Z,101575.34
2023-06-17T00:44:04.976Z,101573.63
2023-06-17T00:46:51.557Z,101572.31
2023-06-17T00:49:37.922Z,101574.13
2023-06-17T00:52:39.553Z,101575.09
2023-06-17T00:55:19.350Z,101572.06
2023-06-17T00:58:01.722Z,101566.66
2023-06-17T01:00:42.241Z,101570.09
2023-06-17T01:03:24.157Z,101566.41
2023-06-17T01:06:21.072Z,101568.28
2023-06-17T01:09:06.527Z,101568.16
2023-06-17T01:11:52.747Z,101564.94
2023-06-17T01:14:35.216Z,101565.53
2023-06-17T01:17:19.215Z,101561.03
2023-06-17T01:20:00.156Z,101562.94
2023-06-17T01:22:41.749Z,101560.44
2023-06-17T01:25:30.257Z,101553.94
2023-06-17T01:28:20.558Z,101559.78
2023-06-17T01:31:00.856Z,101564.06
2023-06-17T01:33:46.508Z,101560.84
2023-06-17T01:36:38.781Z,101567.13
2023-06-17T01:39:24.883Z,101561.44
2023-06-17T01:42:15.834Z,101557.41
2023-06-17T01:44:57.959Z,101558.13
2023-06-17T01:47:38.673Z,101557.19
2023-06-17T01:50:21.060Z,101553.97
2023-06-17T01:53:01.826Z,101568.94
2023-06-17T01:55:42.037Z,101558.88
2023-06-17T01:58:22.416Z,101561.91
2023-06-17T02:01:02.579Z,101562.16
2023-06-17T02:03:43.675Z,101562.06
2023-06-17T02:06:24.270Z,101556.41
2023-06-17T02:09:05.361Z,101557.47
2023-06-17T02:11:46.160Z,101556.53
2023-06-17T02:14:27.392Z,101550.44
2023-06-17T02:17:09.576Z,101545.94
2023-06-17T02:19:50.860Z,101547.78
2023-06-17T02:22:31.762Z,101548.00
2023-06-17T02:25:11.959Z,101544.41
2023-06-17T02:27:52.805Z,101551.47
2023-06-17T02:30:35.837Z,101545.81
2023-06-17T02:33:19.218Z,101550.09
2023-06-17T02:36:00.867Z,101541.19
2023-06-17T02:38:41.737Z,101537.16
2023-06-17T02:41:23.078Z,101533.09
2023-06-17T02:44:03.453Z,101526.28
2023-06-17T02:46:45.585Z,101535.75
2023-06-17T02:49:25.764Z,101529.31
2023-06-17T02:52:06.522Z,101532.41
2023-06-17T02:54:47.717Z,101529.19
2023-06-17T02:57:32.988Z,101528.25
2023-06-17T03:00:14.576Z,101526.66
2023-06-17T03:02:56.445Z,101524.00
2023-06-17T03:05:38.773Z,101517.41
2023-06-17T03:08:19.989Z,101523.09
2023-06-17T03:11:01.240Z,101525.97
2023-06-17T03:13:43.189Z,101526.53
2023-06-17T03:16:34.577Z,101526.53
2023-06-17T03:19:16.758Z,101527.00
2023-06-17T03:21:58.757Z,101529.53
2023-06-17T03:24:41.070Z,101537.88
2023-06-17T03:27:23.953Z,101527.94
2023-06-17T03:30:05.797Z,101525.50
2023-06-17T03:32:46.139Z,101525.97
2023-06-17T03:35:26.923Z,101518.34
2023-06-17T03:38:07.450Z,101518.09
2023-06-17T03:40:48.270Z,101527.47
2023-06-17T03:43:28.938Z,101529.09
2023-06-17T03:46:10.489Z,101530.56
2023-06-17T03:48:50.998Z,101527.69
2023-06-17T03:51:32.427Z,101524.44
2023-06-17T03:54:13.193Z,101529.28
2023-06-17T03:56:53.703Z,101521.09
2023-06-17T03:59:34.886Z,101518.78
2023-06-17T04:02:17.200Z,101521.34
2023-06-17T04:04:57.820Z,101518.34
2023-06-17T04:07:41.115Z,101516.50
2023-06-17T04:10:21.663Z,101519.03
2023-06-17T04:13:02.399Z,101525.06
2023-06-17T04:15:43.582Z,101531.97
2023-06-17T04:18:25.599Z,101525.72
2023-06-17T04:21:06.609Z,101528.25
2023-06-17T04:23:46.847Z,101532.78
2023-06-17T04:26:29.038Z,101526.19
2023-06-17T04:29:09.655Z,101527.13
2023-06-17T04:31:51.023Z,101528.84
2023-06-17T04:34:32.336Z,101525.84
2023-06-17T04:37:13.848Z,101525.47
2023-06-17T04:39:54.317Z,101523.28
2023-06-17T04:42:34.922Z,101523.38
2023-06-17T04:45:18.519Z,101515.03
2023-06-17T04:48:07.394Z,101516.97
2023-06-17T04:50:49.495Z,101514.66
2023-06-17T04:53:29.908Z,101514.94
2023-06-17T04:56:11.142Z,101515.34
2023-06-17T04:58:52.640Z,101520.84
2023-06-17T05:01:32.882Z,101524.75
2023-06-17T05:04:13.035Z,101516.34
2023-06-17T05:06:53.284Z,101520.66
2023-06-17T05:09:34.091Z,101519.06
2023-06-17T05:12:14.543Z,101517.03
2023-06-17T05:14:56.141Z,101531.31
2023-06-17T05:17:37.054Z,101534.34
2023-06-17T05:20:17.566Z,101523.03
2023-06-17T05:22:58.776Z,101525.25
2023-06-17T05:25:39.438Z,101521.59
2023-06-17T05:28:19.677Z,101528.31
2023-06-17T05:31:01.458Z,101518.34
2023-06-17T05:33:42.592Z,101526.31
2023-06-17T05:36:25.549Z,101522.28
2023-06-17T05:39:07.030Z,101519.75
2023-06-17T05:41:48.404Z,101521.59
2023-06-17T05:44:31.749Z,101523.38
2023-06-17T05:47:13.138Z,101522.78
2023-06-17T05:49:53.347Z,101521.75
2023-06-17T05:52:35.114Z,101519.09
2023-06-17T05:55:15.864Z,101521.31
2023-06-17T05:57:56.553Z,101523.50
2023-06-17T06:00:36.928Z,101528.88
2023-06-17T06:03:17.198Z,101533.47
2023-06-17T06:05:57.563Z,101532.09
2023-06-17T06:08:38.404Z,101530.19
2023-06-17T06:11:20.517Z,101534.69
2023-06-17T06:14:01.361Z,101532.88
2023-06-17T06:16:41.802Z,101539.75
2023-06-17T06:19:22.489Z,101540.69
2023-06-17T06:22:02.875Z,101539.59
2023-06-17T06:24:44.626Z,101538.53
2023-06-17T06:27:25.509Z,101533.47
2023-06-17T06:30:07.852Z,101532.81
2023-06-17T06:32:53.057Z,101535.38
2023-06-17T06:35:34.407Z,101541.44
2023-06-17T06:38:16.079Z,101534.78
2023-06-17T06:40:56.528Z,101534.13
2023-06-17T06:43:37.008Z,101535.06
2023-06-17T06:46:27.142Z,101539.16
2023-06-17T06:49:07.828Z,101536.41
2023-06-17T06:51:49.262Z,101534.91
2023-06-17T06:54:29.535Z,101543.00
2023-06-17T06:57:10.070Z,101537.53
2023-06-17T06:59:52.777Z,101539.16
2023-06-17T07:02:33.560Z,101538.06
2023-06-17T07:05:14.499Z,101540.16
2023-06-17T07:08:02.010Z,101535.78
2023-06-17T07:10:42.673Z,101534.16
2023-06-17T07:13:24.515Z,101537.00
2023-06-17T07:16:06.829Z,101541.91
2023-06-17T07:18:48.097Z,101534.72
2023-06-17T07:21:28.907Z,101538.75
2023-06-17T07:24:09.270Z,101526.72
2023-06-17T07:26:50.252Z,101528.34
2023-06-17T07:29:31.480Z,101537.97
2023-06-17T07:32:12.368Z,101531.13
2023-06-17T07:34:57.299Z,101530.25
2023-06-17T07:37:38.595Z,101527.41
2023-06-17T07:40:20.557Z,101526.59
2023-06-17T07:43:01.584Z,101523.34
2023-06-17T07:45:43.017Z,101531.41
2023-06-17T07:48:24.957Z,101523.31
2023-06-17T07:51:05.226Z,101517.63
2023-06-17T07:53:45.425Z,101522.34
2023-06-17T07:56:28.668Z,101519.06
2023-06-17T07:59:10.021Z,101517.81
2023-06-17T08:01:50.729Z,101512.16
2023-06-17T08:04:31.734Z,101518.47
2023-06-17T08:07:12.383Z,101511.53
2023-06-17T08:09:53.007Z,101517.03
2023-06-17T08:12:33.361Z,101511.22
2023-06-17T08:15:13.691Z,101505.31
2023-06-17T08:17:54.307Z,101510.09
2023-06-17T08:20:34.929Z,101509.22
2023-06-17T08:23:15.976Z,101507.91
2023-06-17T08:25:57.755Z,101504.66
2023-06-17T08:28:39.314Z,101502.88
2023-06-17T08:31:20.686Z,101504.81
2023-06-17T08:34:00.931Z,101496.59
2023-06-17T08:36:51.062Z,101496.69
2023-06-17T08:39:32.985Z,101496.00
2023-06-17T08:42:13.171Z,101499.81
2023-06-17T08:44:58.461Z,101489.81
2023-06-17T08:47:38.969Z,101500.88
2023-06-17T08:50:20.028Z,101495.56
2023-06-17T08:53:00.804Z,101485.84
2023-06-17T08:55:41.392Z,101478.69
2023-06-17T08:58:22.326Z,101487.19
2023-06-17T09:01:03.535Z,101484.88
2023-06-17T09:03:44.826Z,101482.47
2023-06-17T09:06:29.239Z,101480.38
2023-06-17T09:09:09.280Z,101479.06
2023-06-17T09:11:53.756Z,101485.75
2023-06-17T09:14:35.297Z,101486.44
2023-06-17T09:17:33.736Z,101489.66
2023-06-17T09:20:17.005Z,101482.47
2023-06-17T09:22:57.292Z,101482.03
2023-06-17T09:25:38.599Z,101485.22
2023-06-17T09:28:18.831Z,101488.84
2023-06-17T09:31:00.769Z,101487.97
2023-06-17T09:33:45.972Z,101492.28
2023-06-17T09:36:27.247Z,101488.34
2023-06-17T09:39:10.671Z,101487.06
2023-06-17T09:41:51.628Z,101482.94
2023-06-17T09:44:32.087Z,101488.78
2023-06-17T09:47:13.078Z,101483.94
2023-06-17T09:49:53.556Z,101494.66
2023-06-17T09:52:36.497Z,101499.63
2023-06-17T09:55:17.382Z,101481.47
2023-06-17T09:58:02.992Z,101488.63
2023-06-17T10:00:46.613Z,101489.59
2023-06-17T10:03:28.978Z,101485.84
2023-06-17T10:06:17.517Z,101477.91
2023-06-17T10:08:58.971Z,101484.31
2023-06-17T10:11:46.300Z,101475.91
2023-06-17T10:14:32.883Z,101477.50
2023-06-17T10:17:13.967Z,101477.69
2023-06-17T10:19:56.204Z,101477.59
2023-06-17T10:22:39.431Z,101474.44
2023-06-17T10:25:20.178Z,101481.63
2023-06-17T10:28:04.420Z,101470.06
2023-06-17T10:30:46.341Z,101472.78
2023-06-17T10:33:28.799Z,101470.47
2023-06-17T10:36:11.378Z,101464.09
2023-06-17T10:39:08.186Z,101459.06
2023-06-17T10:41:50.038Z,101451.16
2023-06-17T10:44:36.958Z,101450.34
2023-06-17T10:47:22.509Z,101443.44
2023-06-17T10:50:06.445Z,101449.34
2023-06-17T10:52:46.981Z,101451.69
2023-06-17T10:55:27.358Z,101450.16
2023-06-17T10:58:08.452Z,101441.91
2023-06-17T11:01:08.798Z,101443.34
2023-06-17T11:03:49.438Z,101445.41
2023-06-17T11:06:33.450Z,101436.44
2023-06-17T11:09:13.484Z,101443.47
2023-06-17T11:11:58.475Z,101444.22
2023-06-17T11:14:40.822Z,101431.19
2023-06-17T11:17:21.332Z,101430.41
2023-06-17T11:20:01.595Z,101427.13
2023-06-17T11:22:42.124Z,101431.66
2023-06-17T11:25:35.985Z,101415.06
2023-06-17T11:28:23.396Z,101421.78
2023-06-17T11:31:04.729Z,101415.19
2023-06-17T11:33:45.581Z,101410.88
2023-06-17T11:36:27.303Z,101408.50
2023-06-17T11:39:10.227Z,101412.25
2023-06-17T11:42:01.149Z,101405.16
2023-06-17T11:44:41.750Z,101402.13
2023-06-17T11:47:34.871Z,101402.00
2023-06-17T11:50:15.670Z,101397.00
2023-06-17T11:52:59.977Z,101385.72
2023-06-17T11:55:44.510Z,101386.06
2023-06-17T11:58:26.794Z,101384.00
2023-06-17T12:01:09.871Z,101389.75
2023-06-17T12:03:50.445Z,101389.41
2023-06-17T12:06:32.941Z,101383.63
2023-06-17T12:09:15.438Z,101380.19
2023-06-17T12:11:56.116Z,101381.06
2023-06-17T12:14:38.684Z,101385.81
2023-06-17T12:17:23.216Z,101387.00
2023-06-17T12:20:03.899Z,101382.03
2023-06-17T12:22:46.027Z,101372.50
2023-06-17T12:25:26.351Z,101374.06
2023-06-17T12:28:07.486Z,101372.91
2023-06-17T12:30:47.998Z,101369.88
2023-06-17T12:33:28.210Z,101366.72
2023-06-17T12:36:08.880Z,101367.97
2023-06-17T12:38:50.541Z,101361.81
2023-06-17T12:41:32.602Z,101358.38
2023-06-17T12:44:13.023Z,101361.94
2023-06-17T12:46:54.601Z,101356.50
2023-06-17T12:49:35.132Z,101356.91
2023-06-17T12:52:15.682Z,101352.94
2023-06-17T12:55:01.398Z,101356.72
2023-06-17T12:57:41.737Z,101348.19
2023-06-17T13:00:22.330Z,101351.94
2023-06-17T13:03:03.651Z,101344.66
2023-06-17T13:05:44.878Z,101340.38
2023-06-17T13:08:25.450Z,101338.28
2023-06-17T13:11:06.421Z,101324.88
2023-06-17T13:13:46.717Z,101327.34
2023-06-17T13:16:27.570Z,101321.84
2023-06-17T13:19:08.921Z,101323.84
2023-06-17T13:21:49.300Z,101322.09
2023-06-17T13:24:29.567Z,101325.03
2023-06-17T13:27:10.512Z,101319.09
2023-06-17T13:29:51.319Z,101316.28
2023-06-17T13:32:32.465Z,101314.88
2023-06-17T13:35:13.468Z,101314.88
2023-06-17T13:37:56.004Z,101322.19
2023-06-17T13:40:36.626Z,101322.31
2023-06-17T13:43:17.291Z,101315.72
2023-06-17T13:45:58.084Z,101315.72
2023-06-17T13:48:38.817Z,101314.03
2023-06-17T13:51:19.285Z,101316.75
2023-06-17T13:54:03.274Z,101313.06
2023-06-17T13:56:43.822Z,101303.69
2023-06-17T13:59:24.892Z,101307.63
2023-06-17T14:02:06.033Z,101307.78
2023-06-17T14:04:46.374Z,101305.09
2023-06-17T14:07:26.759Z,101308.28
2023-06-17T14:10:08.119Z,101300.06
2023-06-17T14:12:48.989Z,101295.50
2023-06-17T14:15:29.427Z,101292.38
2023-06-17T14:18:09.736Z,101306.75
2023-06-17T14:20:49.982Z,101293.53
2023-06-17T14:23:30.408Z,101298.63
2023-06-17T14:26:10.662Z,101302.56
2023-06-17T14:28:51.052Z,101302.78
2023-06-17T14:31:31.499Z,101297.13
2023-06-17T14:34:12.155Z,101298.53
2023-06-17T14:36:52.778Z,101293.25
2023-06-17T14:39:32.816Z,101300.19
2023-06-17T14:42:13.220Z,101297.00
2023-06-17T14:44:53.674Z,101305.34
2023-06-17T14:47:35.293Z,101297.63
2023-06-17T14:50:16.039Z,101299.06
2023-06-17T14:52:56.394Z,101289.13
2023-06-17T14:55:36.703Z,101292.63
2023-06-17T14:58:16.870Z,101288.97
2023-06-17T15:00:57.004Z,101286.56
2023-06-17T15:03:37.501Z,101290.34
2023-06-17T15:06:18.416Z,101282.59
2023-06-17T15:09:26.820Z,101279.78
2023-06-17T15:12:12.551Z,101274.75
2023-06-17T15:14:54.630Z,101275.25
2023-06-17T15:17:35.441Z,101273.19
2023-06-17T15:20:15.907Z,101277.59
2023-06-17T15:22:56.291Z,101275.84
2023-06-17T15:25:36.559Z,101267.91
2023-06-17T15:28:16.810Z,101261.22
2023-06-17T15:30:57.216Z,101261.69
2023-06-17T15:33:37.585Z,101259.66
2023-06-17T15:36:18.000Z,101263.41
2023-06-17T15:39:20.987Z,101258.47
2023-06-17T15:42:01.632Z,101259.53
2023-06-17T15:44:41.973Z,101259.97
2023-06-17T15:47:22.487Z,101261.38
2023-06-17T15:50:04.170Z,101267.19
2023-06-17T15:52:44.479Z,101265.28
2023-06-17T15:55:24.817Z,101252.09
2023-06-17T15:58:05.584Z,101250.97
2023-06-17T16:00:46.009Z,101261.31
2023-06-17T16:03:31.418Z,101267.59
2023-06-17T16:06:12.078Z,101265.03
2023-06-17T16:08:54.259Z,101255.81
2023-06-17T16:11:34.816Z,101259.59
2023-06-17T16:14:15.274Z,101255.28
2023-06-17T16:16:55.674Z,101258.94
2023-06-17T16:19:37.257Z,101252.59
2023-06-17T16:22:17.613Z,101252.59
2023-06-17T16:24:57.842Z,101254.19
2023-06-17T16:27:38.119Z,101248.75
2023-06-17T16:30:19.935Z,101247.50
2023-06-17T16:33:01.879Z,101247.03
2023-06-17T16:35:42.134Z,101247.69
2023-06-17T16:38:22.826Z,101238.38
2023-06-17T16:41:03.411Z,101253.84
2023-06-17T16:43:44.166Z,101234.69
2023-06-17T16:46:24.654Z,101238.22
2023-06-17T16:49:05.051Z,101233.34
2023-06-17T16:51:45.640Z,101240.16
2023-06-17T16:54:26.111Z,101242.69
2023-06-17T16:57:06.827Z,101242.56
2023-06-17T16:59:48.115Z,101242.59
2023-06-17T17:02:29.223Z,101230.50
2023-06-17T17:05:09.654Z,101231.88
2023-06-17T17:07:50.449Z,101240.94
2023-06-17T17:10:31.014Z,101235.59
2023-06-17T17:13:12.351Z,101236.38
2023-06-17T17:15:53.057Z,101244.59
2023-06-17T17:18:36.586Z,101241.84
2023-06-17T17:21:20.644Z,101236.56
2023-06-17T17:24:04.075Z,101238.94
2023-06-17T17:26:46.104Z,101235.56
2023-06-17T17:29:26.960Z,101244.53
2023-06-17T17:32:07.938Z,101240.53
2023-06-17T17:34:48.398Z,101239.28
2023-06-17T17:37:28.704Z,101239.84
2023-06-17T17:40:09.744Z,101242.47
2023-06-17T17:42:50.453Z,101243.50
2023-06-17T17:45:30.800Z,101251.47
2023-06-17T17:48:11.277Z,101251.94
2023-06-17T17:50:51.570Z,101241.94
2023-06-17T17:53:32.052Z,101249.75
2023-06-17T17:56:12.186Z,101253.03
2023-06-17T17:58:52.484Z,101246.69
2023-06-17T18:01:32.749Z,101244.53
2023-06-17T18:04:13.185Z,101248.38
2023-06-17T18:06:53.442Z,101257.09
2023-06-17T18:09:34.019Z,101251.66
2023-06-17T18:12:14.163Z,101264.00
2023-06-17T18:14:54.498Z,101256.03
2023-06-17T18:17:34.727Z,101245.59
2023-06-17T18:20:15.141Z,101250.59
2023-06-17T18:22:55.897Z,101251.69
2023-06-17T18:25:36.608Z,101255.41
2023-06-17T18:28:17.193Z,101247.81
2023-06-17T18:30:57.517Z,101244.38
2023-06-17T18:33:37.886Z,101250.66
2023-06-17T18:36:18.423Z,101246.88
2023-06-17T18:38:58.815Z,101254.09
2023-06-17T18:41:43.039Z,101259.16
2023-06-17T18:44:23.390Z,101251.72
2023-06-17T18:47:04.280Z,101252.75
2023-06-17T18:49:44.698Z,101249.72
2023-06-17T18:52:24.845Z,101251.56
2023-06-17T18:55:05.845Z,101245.28
2023-06-17T18:57:46.559Z,101254.66
2023-06-17T19:00:28.845Z,101253.97
2023-06-17T19:03:09.265Z,101263.78
2023-06-17T19:05:52.761Z,101257.03
2023-06-17T19:08:33.407Z,101261.66
2023-06-17T19:11:16.240Z,101258.53
2023-06-17T19:13:56.899Z,101265.59
2023-06-17T19:16:37.244Z,101263.81
2023-06-17T19:19:17.621Z,101257.28
2023-06-17T19:21:58.017Z,101261.22
2023-06-17T19:24:38.326Z,101270.00
2023-06-17T19:27:18.589Z,101264.56
2023-06-17T19:30:01.128Z,101265.50
2023-06-17T19:32:41.398Z,101263.63
2023-06-17T19:35:21.626Z,101269.72
2023-06-17T19:38:02.606Z,101265.03
2023-06-17T19:40:43.284Z,101264.38
2023-06-17T19:43:24.251Z,101258.03
2023-06-17T19:46:04.952Z,101264.69
2023-06-17T19:48:45.660Z,101262.50
2023-06-17T19:51:26.123Z,101260.66
2023-06-17T19:54:06.365Z,101268.47
2023-06-17T19:56:46.578Z,101262.22
2023-06-17T19:59:27.020Z,101280.56
2023-06-17T20:02:07.719Z,101271.44
2023-06-17T20:04:48.293Z,101272.47
2023-06-17T20:07:28.444Z,101271.03
2023-06-17T20:10:09.314Z,101270.78
2023-06-17T20:12:49.496Z,101274.94
2023-06-17T20:15:30.451Z,101283.59
2023-06-17T20:18:11.220Z,101279.66
2023-06-17T20:20:51.555Z,101281.00
2023-06-17T20:23:31.820Z,101279.97
2023-06-17T20:26:12.501Z,101282.44
2023-06-17T20:28:54.196Z,101285.72
2023-06-17T20:31:34.422Z,101285.00
2023-06-17T20:34:14.606Z,101284.28
2023-06-17T20:36:54.885Z,101289.97
2023-06-17T20:39:35.227Z,101275.56
2023-06-17T20:42:15.707Z,101273.66
2023-06-17T20:44:56.682Z,101271.34
2023-06-17T20:47:37.163Z,101279.41
2023-06-17T20:50:17.474Z,101281.84
2023-06-17T20:52:58.188Z,101280.31
2023-06-17T20:55:38.396Z,101279.53
2023-06-17T20:58:18.835Z,101277.13
2023-06-17T21:00:59.310Z,101274.31
2023-06-17T21:03:39.610Z,101276.75
2023-06-17T21:06:19.968Z,101271.16
2023-06-17T21:09:00.259Z,101266.34
2023-06-17T21:11:41.003Z,101277.19
2023-06-17T21:14:21.248Z,101278.38
2023-06-17T21:17:01.825Z,101272.72
2023-06-17T21:19:42.288Z,101281.53
2023-06-17T21:22:22.468Z,101271.88
2023-06-17T21:25:02.555Z,101267.09
2023-06-17T21:27:42.809Z,101269.13
2023-06-17T21:30:23.391Z,101266.34
2023-06-17T21:33:04.013Z,101266.38
2023-06-17T21:35:44.175Z,101265.59
2023-06-17T21:38:24.699Z,101262.41
2023-06-17T21:41:04.990Z,101262.81
2023-06-17T21:43:45.225Z,101260.84
2023-06-17T21:46:32.114Z,101262.44
2023-06-17T21:49:12.514Z,101270.09
2023-06-17T21:51:52.769Z,101269.31
2023-06-17T21:54:33.480Z,101268.91
2023-06-17T21:57:14.002Z,101264.91
2023-06-17T21:59:54.193Z,101265.72
2023-06-17T22:02:34.474Z,101269.34
2023-06-17T22:05:14.859Z,101268.91
2023-06-17T22:07:55.041Z,101268.91
2023-06-17T22:10:35.355Z,101264.91
2023-06-17T22:13:15.889Z,101260.06
2023-06-17T22:15:56.955Z,101260.88
2023-06-17T22:18:37.097Z,101257.31
2023-06-17T22:21:17.385Z,101260.91
2023-06-17T22:23:57.764Z,101261.72
2023-06-17T22:26:39.627Z,101256.16
2023-06-17T22:29:19.943Z,101259.34
2023-06-17T22:32:00.310Z,101258.94
2023-06-17T22:34:40.700Z,101258.13
2023-06-17T22:37:21.035Z,101257.34
2023-06-17T22:40:01.241Z,101260.94
2023-06-17T22:42:41.664Z,101253.75
2023-06-17T22:45:22.144Z,101254.53
2023-06-17T22:48:03.975Z,101264.59
2023-06-17T22:50:44.194Z,101250.97
2023-06-17T22:53:24.791Z,101250.56
2023-06-17T22:56:05.905Z,101248.16
2023-06-17T22:58:46.538Z,101253.78
2023-06-17T23:01:27.291Z,101255.00
2023-06-17T23:04:07.439Z,101261.00
2023-06-17T23:06:47.697Z,101259.00
2023-06-17T23:09:28.038Z,101255.75
2023-06-17T23:12:09.268Z,101254.13
2023-06-17T23:14:49.745Z,101256.16
2023-06-17T23:17:30.128Z,101252.91
2023-06-17T23:20:10.686Z,101252.94
2023-06-17T23:22:51.730Z,101258.13
2023-06-17T23:25:32.891Z,101247.31
2023-06-17T23:28:13.404Z,101251.31
2023-06-17T23:30:54.160Z,101255.72
2023-06-17T23:33:35.527Z,101249.31
2023-06-17T23:36:15.652Z,101254.94
2023-06-17T23:38:58.415Z,101250.88
2023-06-17T23:41:39.024Z,101248.50
2023-06-17T23:44:20.387Z,101244.09
2023-06-17T23:47:04.469Z,101238.84
2023-06-17T23:49:45.962Z,101240.47
2023-06-17T23:52:26.309Z,101233.66
2023-06-17T23:55:07.286Z,101238.06
2023-06-17T23:57:47.882Z,101235.66
